createdAt,value
2023-01-09T00:01:13.733Z,101699.19
2023-01-09T00:06:10.909Z,101705.19
2023-01-09T00:11:08.052Z,101674.84
2023-01-09T00:16:04.954Z,101698.84
2023-01-09T00:21:03.411Z,101682.28
2023-01-09T00:26:04.974Z,101685.63
2023-01-09T00:31:03.823Z,101680.31
2023-01-09T00:36:01.210Z,101675.97
2023-01-09T00:41:00.009Z,101698.41
2023-01-09T00:45:57.489Z,101685.44
2023-01-09T00:50:57.475Z,101681.84
2023-01-09T00:55:55.258Z,101686.22
2023-01-09T01:00:52.825Z,101681.00
2023-01-09T01:06:07.890Z,101645.53
2023-01-09T01:11:06.079Z,101667.81
2023-01-09T01:16:05.569Z,101577.19
2023-01-09T01:21:06.645Z,101615.00
2023-01-09T01:26:08.729Z,101604.59
2023-01-09T01:31:07.200Z,101589.78
2023-01-09T01:36:06.308Z,101629.41
2023-01-09T01:41:03.987Z,101590.63
2023-01-09T01:46:01.192Z,101615.56
2023-01-09T01:51:04.416Z,101621.59
2023-01-09T01:56:06.493Z,101612.06
2023-01-09T02:01:03.536Z,101600.81
2023-01-09T02:06:04.213Z,101607.72
2023-01-09T02:11:02.304Z,101604.13
2023-01-09T02:16:09.642Z,101593.69
2023-01-09T02:21:14.226Z,101572.13
2023-01-09T02:26:43.631Z,101567.84
2023-01-09T02:31:49.605Z,101560.06
2023-01-09T02:36:56.154Z,101540.19
2023-01-09T02:41:58.765Z,101547.06
2023-01-09T02:47:04.500Z,101544.47
2023-01-09T02:52:15.974Z,101556.34
2023-01-09T02:57:31.460Z,101549.44
2023-01-09T03:02:44.243Z,101532.22
2023-01-09T03:07:45.472Z,101509.84
2023-01-09T03:12:43.306Z,101553.81
2023-01-09T03:17:45.534Z,101553.03
2023-01-09T03:22:47.393Z,101543.56
2023-01-09T03:27:44.181Z,101565.09
2023-01-09T03:32:41.569Z,101552.94
2023-01-09T03:37:38.292Z,101525.44
2023-01-09T03:42:35.057Z,101551.22
2023-01-09T03:47:31.801Z,101547.78
2023-01-09T03:52:29.286Z,101564.16
2023-01-09T03:57:26.098Z,101565.03
2023-01-09T04:02:22.887Z,101545.25
2023-01-09T04:07:19.663Z,101576.34
2023-01-09T04:12:17.102Z,101558.22
2023-01-09T04:17:15.956Z,101576.28
2023-01-09T04:22:12.748Z,101559.81
2023-01-09T04:27:11.517Z,101574.47
2023-01-09T04:32:09.140Z,101583.22
2023-01-09T04:37:05.998Z,101569.47
2023-01-09T04:42:02.845Z,101552.34
2023-01-09T04:46:59.833Z,101582.59
2023-01-09T04:51:57.480Z,101568.03
2023-01-09T04:56:54.340Z,101596.56
2023-01-09T05:01:52.158Z,101603.50
2023-01-09T05:06:49.026Z,101600.09
2023-01-09T05:11:46.515Z,101555.38
2023-01-09T05:16:43.321Z,101542.38
2023-01-09T05:21:40.059Z,101599.19
2023-01-09T05:26:36.907Z,101558.66
2023-01-09T05:31:34.420Z,101587.03
2023-01-09T05:36:31.243Z,101568.00
2023-01-09T05:41:28.431Z,101555.16
2023-01-09T05:46:25.441Z,101524.16
2023-01-09T05:51:23.275Z,101580.97
2023-01-09T05:56:20.178Z,101504.38
2023-01-09T06:01:17.046Z,101560.25
2023-01-09T06:06:13.860Z,101501.72
2023-01-09T06:11:11.466Z,101552.38
2023-01-09T06:16:14.319Z,101556.69
2023-01-09T06:21:13.042Z,101514.44
2023-01-09T06:26:09.863Z,101549.66
2023-01-09T06:31:10.771Z,101534.13
2023-01-09T06:36:08.250Z,101508.34
2023-01-09T06:41:06.097Z,101553.09
2023-01-09T06:46:05.013Z,101520.19
2023-01-09T06:51:04.000Z,101547.53
2023-01-09T06:56:02.179Z,101550.91
2023-01-09T07:00:59.033Z,101564.59
2023-01-09T07:05:57.854Z,101559.31
2023-01-09T07:10:55.342Z,101555.66
2023-01-09T07:15:53.078Z,101486.66
2023-01-09T07:20:51.614Z,101497.13
2023-01-09T07:25:51.881Z,101508.16
2023-01-09T07:30:49.414Z,101508.75
2023-01-09T07:35:46.421Z,101502.44
2023-01-09T07:40:43.183Z,101472.81
2023-01-09T07:45:39.977Z,101539.00
2023-01-09T07:50:37.558Z,101522.22
2023-01-09T07:55:34.328Z,101458.25
2023-01-09T08:00:33.045Z,101506.03
2023-01-09T08:05:30.090Z,101511.94
2023-01-09T08:10:32.337Z,101451.41
2023-01-09T08:15:30.210Z,101487.91
2023-01-09T08:20:27.244Z,101474.47
2023-01-09T08:25:24.900Z,101506.03
2023-01-09T08:30:22.634Z,101511.63
2023-01-09T08:35:20.173Z,101510.19
2023-01-09T08:40:17.981Z,101489.34
2023-01-09T08:45:32.824Z,101466.75
2023-01-09T08:50:30.346Z,101491.25
2023-01-09T08:55:27.243Z,101424.81
2023-01-09T09:00:29.813Z,101441.94
2023-01-09T09:05:29.219Z,101401.84
2023-01-09T09:10:30.059Z,101457.53
2023-01-09T09:15:29.998Z,101398.44
2023-01-09T09:20:31.904Z,101381.81
2023-01-09T09:25:33.133Z,101436.84
2023-01-09T09:30:31.020Z,101391.44
2023-01-09T09:35:27.972Z,101417.19
2023-01-09T09:40:51.690Z,101406.75
2023-01-09T09:45:54.040Z,101397.91
2023-01-09T09:51:17.391Z,101444.75
2023-01-09T09:56:21.192Z,101438.06
2023-01-09T10:01:23.021Z,101398.88
2023-01-09T10:06:27.735Z,101364.25
2023-01-09T10:11:36.200Z,101419.72
2023-01-09T10:16:47.789Z,101407.50
2023-01-09T10:21:56.263Z,101407.25
2023-01-09T10:26:59.819Z,101358.16
2023-01-09T10:32:19.872Z,101335.66
2023-01-09T10:37:20.174Z,101359.09
2023-01-09T10:42:24.864Z,101385.31
2023-01-09T10:47:26.486Z,101371.97
2023-01-09T10:52:29.829Z,101369.09
2023-01-09T10:57:44.468Z,101259.34
2023-01-09T11:02:45.217Z,101320.19
2023-01-09T11:07:45.741Z,101336.09
2023-01-09T11:12:43.463Z,101307.84
2023-01-09T11:17:40.318Z,101338.25
2023-01-09T11:22:46.484Z,101340.97
2023-01-09T11:27:44.300Z,101285.81
2023-01-09T11:32:41.631Z,101323.75
2023-01-09T11:37:38.549Z,101314.13
2023-01-09T11:42:53.522Z,101250.56
2023-01-09T11:47:51.009Z,101283.75
2023-01-09T11:53:12.507Z,101282.63
2023-01-09T11:58:14.272Z,101250.69
2023-01-09T12:03:27.649Z,101273.69
2023-01-09T12:08:35.132Z,101273.69
2023-01-09T12:13:43.426Z,101200.69
2023-01-09T12:19:07.238Z,101248.28
2023-01-09T12:24:43.714Z,101254.94
2023-01-09T12:29:50.059Z,101245.53
2023-01-09T12:34:54.840Z,101243.34
2023-01-09T12:40:02.750Z,101243.66
2023-01-09T12:45:02.383Z,101183.84
2023-01-09T12:50:09.851Z,101209.47
2023-01-09T12:55:15.336Z,101206.50
2023-01-09T13:00:18.315Z,101147.25
2023-01-09T13:05:20.387Z,101180.66
2023-01-09T13:10:22.020Z,101135.25
2023-01-09T13:15:28.660Z,101190.16
2023-01-09T13:20:39.454Z,101067.81
2023-01-09T13:25:44.112Z,101114.84
2023-01-09T13:31:10.900Z,101158.00
2023-01-09T13:36:19.745Z,101191.47
2023-01-09T13:41:46.174Z,101185.47
2023-01-09T13:46:55.648Z,101187.44
2023-01-09T13:52:17.773Z,101183.47
2023-01-09T13:57:27.733Z,101106.03
2023-01-09T14:02:53.785Z,101189.72
2023-01-09T14:08:02.072Z,101165.59
2023-01-09T14:12:59.140Z,101178.81
2023-01-09T14:17:59.534Z,101111.47
2023-01-09T14:23:18.172Z,101084.44
2023-01-09T14:28:22.803Z,101110.22
2023-01-09T14:33:29.341Z,101158.69
2023-01-09T14:38:30.659Z,101151.81
2023-01-09T14:43:41.283Z,101105.31
2023-01-09T14:48:45.472Z,101065.16
2023-01-09T14:53:43.487Z,101119.75
2023-01-09T14:58:40.371Z,101105.19
2023-01-09T15:03:40.620Z,101068.78
2023-01-09T15:08:37.721Z,101087.34
2023-01-09T15:13:40.828Z,101047.88
2023-01-09T15:18:41.825Z,101037.63
2023-01-09T15:23:38.639Z,101082.91
2023-01-09T15:28:42.559Z,101035.66
2023-01-09T15:33:40.519Z,101077.25
2023-01-09T15:38:39.664Z,101079.72
2023-01-09T15:43:40.475Z,101009.78
2023-01-09T15:48:38.056Z,101074.88
2023-01-09T15:53:35.212Z,101078.97
2023-01-09T15:58:34.481Z,101070.22
2023-01-09T16:03:31.606Z,101067.50
2023-01-09T16:08:33.882Z,101078.38
2023-01-09T16:13:38.594Z,101013.75
2023-01-09T16:18:38.050Z,101046.13
2023-01-09T16:23:36.123Z,101041.88
2023-01-09T16:28:33.157Z,100899.69
2023-01-09T16:33:31.550Z,100969.72
2023-01-09T16:38:28.567Z,101009.09
2023-01-09T16:43:26.079Z,100985.25
2023-01-09T16:48:25.893Z,100994.81
2023-01-09T16:53:26.485Z,100947.22
2023-01-09T16:58:26.909Z,100992.63
2023-01-09T17:03:24.298Z,100989.38
2023-01-09T17:08:22.786Z,100968.13
2023-01-09T17:13:19.772Z,100991.28
2023-01-09T17:18:19.112Z,100957.66
2023-01-09T17:23:16.097Z,100968.22
2023-01-09T17:28:32.329Z,100957.63
2023-01-09T17:33:29.965Z,100990.69
2023-01-09T17:38:26.780Z,100991.53
2023-01-09T17:43:23.910Z,101006.63
2023-01-09T17:48:22.365Z,101008.13
2023-01-09T17:53:22.040Z,101002.56
2023-01-09T17:58:29.722Z,101005.97
2023-01-09T18:03:32.679Z,100964.34
2023-01-09T18:08:30.542Z,100994.41
2023-01-09T18:13:28.222Z,100986.47
2023-01-09T18:18:25.098Z,100913.53
2023-01-09T18:23:23.550Z,100902.00
2023-01-09T18:28:21.008Z,100939.09
2023-01-09T18:33:18.418Z,100927.34
2023-01-09T18:38:17.935Z,100865.44
2023-01-09T18:43:14.934Z,100851.09
2023-01-09T18:48:12.615Z,100913.41
2023-01-09T18:53:12.174Z,100852.00
2023-01-09T18:58:09.038Z,100902.16
2023-01-09T19:03:05.972Z,100891.59
2023-01-09T19:08:03.577Z,100860.38
2023-01-09T19:13:00.492Z,100888.94
2023-01-09T19:17:57.667Z,100855.00
2023-01-09T19:22:56.482Z,100874.84
2023-01-09T19:27:55.457Z,100847.84
2023-01-09T19:32:52.559Z,100786.03
2023-01-09T19:37:49.382Z,100854.59
2023-01-09T19:42:47.013Z,100847.00
2023-01-09T19:47:44.849Z,100767.38
2023-01-09T19:52:42.693Z,100829.81
2023-01-09T19:57:39.551Z,100810.25
2023-01-09T20:02:36.460Z,100764.03
2023-01-09T20:07:34.548Z,100812.13
2023-01-09T20:12:32.444Z,100809.69
2023-01-09T20:17:30.719Z,100748.91
2023-01-09T20:22:28.610Z,100796.88
2023-01-09T20:27:26.629Z,100717.31
2023-01-09T20:32:23.646Z,100756.75
2023-01-09T20:37:20.480Z,100684.59
2023-01-09T20:42:17.308Z,100790.53
2023-01-09T20:47:14.786Z,100724.28
2023-01-09T20:52:13.224Z,100719.72
2023-01-09T20:57:10.106Z,100719.81
2023-01-09T21:02:12.833Z,100734.28
2023-01-09T21:07:10.370Z,100780.28
2023-01-09T21:12:24.068Z,100716.16
2023-01-09T21:17:21.246Z,100783.22
2023-01-09T21:22:18.903Z,100788.59
2023-01-09T21:27:15.780Z,100779.31
2023-01-09T21:32:12.695Z,100746.00
2023-01-09T21:37:09.515Z,100739.06
2023-01-09T21:42:25.154Z,100767.34
2023-01-09T21:47:22.314Z,100756.16
2023-01-09T21:52:20.350Z,100763.06
2023-01-09T21:57:18.058Z,100727.97
2023-01-09T22:02:15.595Z,100747.59
2023-01-09T22:07:12.368Z,100752.63
2023-01-09T22:12:11.357Z,100742.19
2023-01-09T22:17:08.826Z,100671.81
2023-01-09T22:22:07.785Z,100715.25
2023-01-09T22:27:04.612Z,100706.59
2023-01-09T22:32:01.754Z,100697.06
2023-01-09T22:36:59.729Z,100624.06
2023-01-09T22:41:58.501Z,100641.69
2023-01-09T22:46:56.738Z,100663.78
2023-01-09T22:51:53.554Z,100685.22
2023-01-09T22:56:51.000Z,100673.97
2023-01-09T23:01:47.814Z,100674.59
2023-01-09T23:06:44.849Z,100659.59
2023-01-09T23:11:59.470Z,100625.72
2023-01-09T23:16:57.271Z,100657.25
2023-01-09T23:21:54.108Z,100649.44
2023-01-09T23:26:51.609Z,100632.31
2023-01-09T23:31:48.449Z,100619.34
2023-01-09T23:36:47.711Z,100651.03
2023-01-09T23:42:02.984Z,100631.03
2023-01-09T23:46:59.756Z,100561.66
2023-01-09T23:51:57.485Z,100599.19
2023-01-09T23:56:55.833Z,100570.97
